createdAt,value
2022-10-16T00:00:12.109Z,21.84
2022-10-16T00:02:44.887Z,21.76
2022-10-16T00:05:14.172Z,21.78
2022-10-16T00:07:45.887Z,21.75
2022-10-16T00:10:27.344Z,21.73
2022-10-16T00:12:58.897Z,21.68
2022-10-16T00:15:28.134Z,21.47
2022-10-16T00:17:58.087Z,21.63
2022-10-16T00:20:44.744Z,21.67
2022-10-16T00:23:14.158Z,21.66
2022-10-16T00:25:42.520Z,21.77
2022-10-16T00:28:17.363Z,21.72
2022-10-16T00:30:46.885Z,21.70
2022-10-16T00:33:24.753Z,21.71
2022-10-16T00:35:56.616Z,21.77
2022-10-16T00:38:26.504Z,21.68
2022-10-16T00:40:55.938Z,21.78
2022-10-16T00:43:52.022Z,21.80
2022-10-16T00:46:42.492Z,21.73
2022-10-16T00:49:19.191Z,21.84
2022-10-16T00:52:10.044Z,21.79
2022-10-16T00:54:40.384Z,21.80
2022-10-16T00:57:12.766Z,21.76
2022-10-16T01:21:15.792Z,21.92
2022-10-16T01:24:20.060Z,21.93
2022-10-16T01:27:26.397Z,21.89
2022-10-16T01:30:45.203Z,21.84
2022-10-16T01:33:31.809Z,21.69
2022-10-16T01:39:13.935Z,21.74
2022-10-16T01:41:50.931Z,21.75
2022-10-16T01:44:26.893Z,21.75
2022-10-16T01:46:58.761Z,21.65
2022-10-16T01:49:33.476Z,21.76
2022-10-16T01:52:10.561Z,21.72
2022-10-16T01:54:46.899Z,21.76
2022-10-16T01:57:19.468Z,21.77
2022-10-16T02:00:02.507Z,21.80
2022-10-16T02:02:48.623Z,21.73
2022-10-16T02:05:32.444Z,21.80
2022-10-16T02:08:03.201Z,21.70
2022-10-16T02:10:37.439Z,21.80
2022-10-16T02:13:18.917Z,21.83
2022-10-16T02:15:49.402Z,21.79
2022-10-16T02:18:20.601Z,21.78
2022-10-16T02:21:29.870Z,21.79
2022-10-16T02:24:36.183Z,21.71
2022-10-16T02:27:36.354Z,21.69
2022-10-16T02:30:21.728Z,21.53
2022-10-16T02:32:54.108Z,21.51
2022-10-16T02:35:25.060Z,21.53
2022-10-16T02:38:15.119Z,21.53
2022-10-16T02:40:45.013Z,21.52
2022-10-16T02:43:15.708Z,21.51
2022-10-16T02:45:45.040Z,21.51
2022-10-16T02:48:15.648Z,21.54
2022-10-16T02:50:43.700Z,21.49
2022-10-16T02:53:13.340Z,21.46
2022-10-16T02:55:42.686Z,21.44
2022-10-16T02:58:10.467Z,21.41
2022-10-16T03:00:38.879Z,21.37
2022-10-16T03:03:07.095Z,21.41
2022-10-16T03:05:35.656Z,21.42
2022-10-16T03:08:03.479Z,21.33
2022-10-16T03:10:31.504Z,21.38
2022-10-16T03:13:00.081Z,21.34
2022-10-16T03:15:29.200Z,21.43
2022-10-16T03:17:59.690Z,21.42
2022-10-16T03:20:27.731Z,21.46
2022-10-16T03:22:55.922Z,21.47
2022-10-16T03:25:24.591Z,21.48
2022-10-16T03:27:53.250Z,21.46
2022-10-16T03:30:23.124Z,21.45
2022-10-16T03:32:54.920Z,21.37
2022-10-16T03:35:24.675Z,21.34
2022-10-16T03:37:53.346Z,21.35
2022-10-16T03:40:21.805Z,21.29
2022-10-16T03:42:49.565Z,21.34
2022-10-16T03:45:17.872Z,21.33
2022-10-16T03:47:45.727Z,21.24
2022-10-16T03:50:13.466Z,21.29
2022-10-16T03:52:41.416Z,21.30
2022-10-16T03:55:09.533Z,21.30
2022-10-16T03:57:37.345Z,21.26
2022-10-16T04:00:05.833Z,21.28
2022-10-16T04:02:43.240Z,21.29
2022-10-16T04:05:15.352Z,21.27
2022-10-16T04:07:43.077Z,21.23
2022-10-16T04:10:11.515Z,21.32
2022-10-16T04:12:40.588Z,21.23
2022-10-16T04:15:09.436Z,21.31
2022-10-16T04:17:38.846Z,21.34
2022-10-16T04:20:09.107Z,21.35
2022-10-16T04:22:40.251Z,21.34
2022-10-16T04:25:09.005Z,21.34
2022-10-16T04:27:36.764Z,21.36
2022-10-16T04:30:07.691Z,21.29
2022-10-16T04:32:35.437Z,21.34
2022-10-16T04:35:03.917Z,21.39
2022-10-16T04:37:33.388Z,21.35
2022-10-16T04:40:01.361Z,21.40
2022-10-16T04:42:29.390Z,21.42
2022-10-16T04:44:57.285Z,21.34
2022-10-16T04:47:25.394Z,21.41
2022-10-16T04:49:53.661Z,21.42
2022-10-16T04:52:22.924Z,21.42
2022-10-16T04:54:51.629Z,21.38
2022-10-16T04:57:19.433Z,21.43
2022-10-16T04:59:47.237Z,21.42
2022-10-16T05:02:15.235Z,21.36
2022-10-16T05:04:43.915Z,21.26
2022-10-16T05:07:11.798Z,21.29
2022-10-16T05:09:39.779Z,21.30
2022-10-16T05:12:07.628Z,21.25
2022-10-16T05:14:35.867Z,21.27
2022-10-16T05:17:03.803Z,21.20
2022-10-16T05:19:31.595Z,21.23
2022-10-16T05:22:00.752Z,21.21
2022-10-16T05:24:28.782Z,21.23
2022-10-16T05:26:58.069Z,21.11
2022-10-16T05:29:26.696Z,21.25
2022-10-16T05:31:54.837Z,21.27
2022-10-16T05:34:22.911Z,21.27
2022-10-16T05:36:53.517Z,21.17
2022-10-16T05:39:21.458Z,21.25
2022-10-16T05:41:51.642Z,21.18
2022-10-16T05:44:19.468Z,21.26
2022-10-16T05:46:48.332Z,21.23
2022-10-16T05:49:18.367Z,21.27
2022-10-16T05:51:46.338Z,21.26
2022-10-16T05:54:14.515Z,21.22
2022-10-16T05:56:42.678Z,21.18
2022-10-16T05:59:10.605Z,21.25
2022-10-16T06:01:38.367Z,21.23
2022-10-16T06:04:06.777Z,21.27
2022-10-16T06:06:38.522Z,21.25
2022-10-16T06:09:06.745Z,21.19
2022-10-16T06:11:35.209Z,21.13
2022-10-16T06:14:07.688Z,21.21
2022-10-16T06:16:40.599Z,21.16
2022-10-16T06:19:09.267Z,21.19
2022-10-16T06:21:37.044Z,21.10
2022-10-16T06:24:10.070Z,21.20
2022-10-16T06:26:40.834Z,21.15
2022-10-16T06:29:10.266Z,21.15
2022-10-16T06:31:40.526Z,21.16
2022-10-16T06:34:12.531Z,21.13
2022-10-16T06:36:42.286Z,21.09
2022-10-16T06:39:10.236Z,21.18
2022-10-16T06:41:40.635Z,21.16
2022-10-16T06:44:18.812Z,21.22
2022-10-16T06:46:46.792Z,21.24
2022-10-16T06:49:22.754Z,21.26
2022-10-16T06:51:50.841Z,21.20
2022-10-16T06:54:19.056Z,21.25
2022-10-16T06:56:49.104Z,21.23
2022-10-16T06:59:16.894Z,21.25
2022-10-16T07:01:45.132Z,21.21
2022-10-16T07:04:18.874Z,21.27
2022-10-16T07:06:48.619Z,21.25
2022-10-16T07:09:16.774Z,21.27
2022-10-16T07:11:44.995Z,21.29
2022-10-16T07:14:21.560Z,21.31
2022-10-16T07:16:51.618Z,21.29
2022-10-16T07:19:20.164Z,21.38
2022-10-16T07:21:48.694Z,21.44
2022-10-16T07:24:18.093Z,21.56
2022-10-16T07:26:47.205Z,21.62
2022-10-16T07:29:19.659Z,21.71
2022-10-16T07:31:49.757Z,21.77
2022-10-16T07:34:19.741Z,21.78
2022-10-16T07:36:50.693Z,21.85
2022-10-16T07:39:19.359Z,21.88
2022-10-16T07:41:48.621Z,21.90
2022-10-16T07:44:19.350Z,21.88
2022-10-16T07:46:49.686Z,21.98
2022-10-16T07:49:19.429Z,22.01
2022-10-16T07:51:47.251Z,22.09
2022-10-16T07:54:15.027Z,22.15
2022-10-16T07:56:43.983Z,22.20
2022-10-16T07:59:13.106Z,22.26
2022-10-16T08:01:44.395Z,22.29
2022-10-16T08:04:14.976Z,22.32
2022-10-16T08:06:43.051Z,22.34
2022-10-16T08:09:11.138Z,22.40
2022-10-16T08:11:41.379Z,22.33
2022-10-16T08:14:09.355Z,22.34
2022-10-16T08:16:39.535Z,22.36
2022-10-16T08:19:09.186Z,22.46
2022-10-16T08:21:37.008Z,22.45
2022-10-16T08:24:04.924Z,22.55
2022-10-16T08:26:34.063Z,22.57
2022-10-16T08:29:03.299Z,22.54
2022-10-16T08:31:33.788Z,22.61
2022-10-16T08:34:01.841Z,22.64
2022-10-16T08:36:49.961Z,22.66
2022-10-16T08:39:22.301Z,22.70
2022-10-16T08:42:34.220Z,22.69
2022-10-16T08:45:49.240Z,22.77
2022-10-16T08:48:28.776Z,22.81
2022-10-16T08:50:59.251Z,22.79
2022-10-16T08:53:37.227Z,22.89
2022-10-16T08:56:07.000Z,22.84
2022-10-16T08:58:38.374Z,22.85
2022-10-16T09:01:26.688Z,22.96
2022-10-16T09:04:21.472Z,22.96
2022-10-16T09:07:21.384Z,22.94
2022-10-16T09:10:08.177Z,23.06
2022-10-16T09:12:55.986Z,23.08
2022-10-16T09:15:26.754Z,23.08
2022-10-16T09:18:00.903Z,23.10
2022-10-16T09:21:19.459Z,23.18
2022-10-16T09:23:51.329Z,23.17
2022-10-16T09:26:27.151Z,23.21
2022-10-16T09:28:55.636Z,23.24
2022-10-16T09:31:28.141Z,23.31
2022-10-16T09:34:10.481Z,23.36
2022-10-16T09:36:45.973Z,23.42
2022-10-16T09:39:15.413Z,23.44
2022-10-16T09:41:46.760Z,23.56
2022-10-16T09:44:25.169Z,23.62
2022-10-16T09:47:05.958Z,23.71
2022-10-16T09:49:43.703Z,23.71
2022-10-16T09:52:16.507Z,23.78
2022-10-16T09:54:54.272Z,23.88
2022-10-16T09:57:46.283Z,23.85
2022-10-16T10:00:25.014Z,23.93
2022-10-16T10:02:58.696Z,24.01
2022-10-16T10:05:42.217Z,24.11
2022-10-16T10:08:23.110Z,24.14
2022-10-16T10:10:55.768Z,24.25
2022-10-16T10:13:28.025Z,24.19
2022-10-16T10:15:58.614Z,24.31
2022-10-16T10:19:00.516Z,24.30
2022-10-16T10:21:28.738Z,24.37
2022-10-16T10:23:59.038Z,24.39
2022-10-16T10:26:31.289Z,24.39
2022-10-16T10:29:49.543Z,24.48
2022-10-16T10:32:50.677Z,24.47
2022-10-16T10:35:46.326Z,24.52
2022-10-16T10:38:47.764Z,24.53
2022-10-16T10:41:32.946Z,24.54
2022-10-16T10:44:34.852Z,24.51
2022-10-16T10:47:21.085Z,24.57
2022-10-16T10:50:02.463Z,24.56
2022-10-16T10:52:48.373Z,24.53
2022-10-16T10:55:40.436Z,24.53
2022-10-16T10:58:38.444Z,24.57
2022-10-16T11:01:15.070Z,24.51
2022-10-16T11:04:20.062Z,24.60
2022-10-16T11:07:00.290Z,24.61
2022-10-16T11:09:52.186Z,24.64
2022-10-16T11:12:41.269Z,24.64
2022-10-16T11:15:33.475Z,24.66
2022-10-16T11:18:49.175Z,24.67
2022-10-16T11:21:28.734Z,24.58
2022-10-16T11:24:13.217Z,24.70
2022-10-16T11:26:44.133Z,24.74
2022-10-16T11:29:26.525Z,24.84
2022-10-16T11:32:02.956Z,24.87
2022-10-16T11:34:46.244Z,25.05
2022-10-16T11:37:25.178Z,25.02
2022-10-16T11:39:58.334Z,25.15
2022-10-16T11:42:40.992Z,25.24
2022-10-16T11:45:17.568Z,25.32
2022-10-16T11:47:59.187Z,25.39
2022-10-16T11:50:56.127Z,25.51
2022-10-16T11:53:59.238Z,25.57
2022-10-16T11:56:29.566Z,25.61
2022-10-16T11:59:03.818Z,25.72
2022-10-16T12:02:00.333Z,25.76
2022-10-16T12:04:59.708Z,25.83
2022-10-16T12:07:40.377Z,25.91
2022-10-16T12:10:27.946Z,25.99
2022-10-16T12:12:57.859Z,25.94
2022-10-16T12:15:58.649Z,26.09
2022-10-16T12:18:27.289Z,26.11
2022-10-16T12:21:01.047Z,26.21
2022-10-16T12:23:29.302Z,26.25
2022-10-16T12:26:00.610Z,26.31
2022-10-16T12:28:31.065Z,26.15
2022-10-16T12:31:06.594Z,26.27
2022-10-16T12:33:42.814Z,26.29
2022-10-16T12:36:32.968Z,26.43
2022-10-16T12:39:01.954Z,26.40
2022-10-16T12:41:40.952Z,26.49
2022-10-16T12:44:34.635Z,26.52
2022-10-16T12:47:03.852Z,26.55
2022-10-16T12:49:38.757Z,26.61
2022-10-16T12:52:35.638Z,26.64
2022-10-16T12:55:13.453Z,26.64
2022-10-16T12:58:07.357Z,26.69
2022-10-16T13:01:15.365Z,26.66
2022-10-16T13:03:54.704Z,26.61
2022-10-16T13:06:53.766Z,26.63
2022-10-16T13:09:45.107Z,26.59
2022-10-16T13:12:42.186Z,26.58
2022-10-16T13:15:40.578Z,26.52
2022-10-16T13:18:19.915Z,26.47
2022-10-16T13:21:41.612Z,26.45
2022-10-16T13:24:52.354Z,26.33
2022-10-16T13:27:51.267Z,26.28
2022-10-16T13:30:28.211Z,26.23
2022-10-16T13:33:27.771Z,26.22
2022-10-16T13:35:58.229Z,26.16
2022-10-16T13:38:34.269Z,26.16
2022-10-16T13:41:18.189Z,26.18
2022-10-16T13:43:54.373Z,26.16
2022-10-16T13:46:26.574Z,26.12
2022-10-16T13:49:17.871Z,26.08
2022-10-16T13:52:01.126Z,26.08
2022-10-16T13:54:32.977Z,26.03
2022-10-16T13:57:25.908Z,26.03
2022-10-16T13:59:56.147Z,25.93
2022-10-16T14:02:40.352Z,26.01
2022-10-16T14:05:11.968Z,25.97
2022-10-16T14:07:40.258Z,25.93
2022-10-16T14:10:32.415Z,25.91
2022-10-16T14:13:07.793Z,25.87
2022-10-16T14:15:37.888Z,25.85
2022-10-16T14:18:07.816Z,25.80
2022-10-16T14:20:36.557Z,25.79
2022-10-16T14:23:25.251Z,25.77
2022-10-16T14:25:53.539Z,25.72
2022-10-16T14:28:24.672Z,25.73
2022-10-16T14:31:01.835Z,25.71
2022-10-16T14:33:38.005Z,25.68
2022-10-16T14:36:28.215Z,25.65
2022-10-16T14:39:15.980Z,25.62
2022-10-16T14:41:51.439Z,25.61
2022-10-16T14:44:24.326Z,25.56
2022-10-16T14:46:52.412Z,25.59
2022-10-16T14:49:23.570Z,25.61
2022-10-16T14:51:53.220Z,25.63
2022-10-16T14:54:21.731Z,25.70
2022-10-16T14:56:59.310Z,25.71
2022-10-16T14:59:39.559Z,25.74
2022-10-16T15:02:32.420Z,25.77
2022-10-16T15:05:23.456Z,25.79
2022-10-16T15:07:55.828Z,25.76
2022-10-16T15:10:27.060Z,25.73
2022-10-16T15:12:55.295Z,25.69
2022-10-16T15:15:36.476Z,25.72
2022-10-16T15:18:05.644Z,25.65
2022-10-16T15:20:37.322Z,25.67
2022-10-16T15:23:17.402Z,25.63
2022-10-16T15:25:52.532Z,25.63
2022-10-16T15:28:22.931Z,25.62
2022-10-16T15:30:54.313Z,25.61
2022-10-16T15:33:29.813Z,25.38
2022-10-16T15:35:58.435Z,25.46
2022-10-16T15:38:27.852Z,25.50
2022-10-16T15:40:56.557Z,25.49
2022-10-16T15:43:24.860Z,25.47
2022-10-16T15:46:07.248Z,25.44
2022-10-16T15:48:36.948Z,25.40
2022-10-16T15:51:10.939Z,25.41
2022-10-16T15:53:41.902Z,25.37
2022-10-16T15:56:13.215Z,25.38
2022-10-16T15:58:42.605Z,25.30
2022-10-16T16:01:12.415Z,25.24
2022-10-16T16:03:43.564Z,25.18
2022-10-16T16:06:16.895Z,25.14
2022-10-16T16:08:45.063Z,25.03
2022-10-16T16:11:18.138Z,25.05
2022-10-16T16:13:47.123Z,24.95
2022-10-16T16:16:17.764Z,24.97
2022-10-16T16:18:46.331Z,24.91
2022-10-16T16:21:16.382Z,24.87
2022-10-16T16:26:37.357Z,24.78
2022-10-16T16:29:05.802Z,24.72
2022-10-16T16:31:35.591Z,24.67
2022-10-16T16:34:04.100Z,24.58
2022-10-16T16:36:33.242Z,24.57
2022-10-16T16:39:01.814Z,24.49
2022-10-16T16:41:32.647Z,24.49
2022-10-16T16:44:08.770Z,24.45
2022-10-16T16:46:38.780Z,24.34
2022-10-16T16:49:08.283Z,24.37
2022-10-16T16:51:39.912Z,24.31
2022-10-16T16:54:11.300Z,24.24
2022-10-16T16:56:41.091Z,24.06
2022-10-16T16:59:16.687Z,24.08
2022-10-16T17:01:45.220Z,23.90
2022-10-16T17:04:16.595Z,23.95
2022-10-16T17:06:45.812Z,23.85
2022-10-16T17:09:14.936Z,23.90
2022-10-16T17:11:45.718Z,23.87
2022-10-16T17:14:14.424Z,23.84
2022-10-16T17:16:46.056Z,23.79
2022-10-16T17:19:17.398Z,23.50
2022-10-16T17:21:50.090Z,23.58
2022-10-16T17:24:21.457Z,23.66
2022-10-16T17:26:49.760Z,23.40
2022-10-16T17:29:19.932Z,23.43
2022-10-16T17:31:52.540Z,23.41
2022-10-16T17:34:21.379Z,23.35
2022-10-16T17:36:52.224Z,23.29
2022-10-16T17:39:22.148Z,23.24
2022-10-16T17:41:51.147Z,23.18
2022-10-16T17:44:21.644Z,23.10
2022-10-16T17:46:55.983Z,23.14
2022-10-16T17:51:56.580Z,23.08
2022-10-16T17:54:25.570Z,23.00
2022-10-16T17:56:54.629Z,23.04
2022-10-16T17:59:25.475Z,23.04
2022-10-16T18:01:54.602Z,22.94
2022-10-16T18:04:23.167Z,22.99
2022-10-16T18:06:51.663Z,23.03
2022-10-16T18:09:23.460Z,23.02
2022-10-16T18:12:02.900Z,22.98
2022-10-16T18:14:35.071Z,22.79
2022-10-16T18:17:06.702Z,22.88
2022-10-16T18:19:38.146Z,22.67
2022-10-16T18:22:08.187Z,22.65
2022-10-16T18:24:38.518Z,22.61
2022-10-16T18:27:08.901Z,22.53
2022-10-16T18:29:40.757Z,22.45
2022-10-16T18:32:11.875Z,22.35
2022-10-16T18:34:41.359Z,22.29
2022-10-16T18:37:10.834Z,22.29
2022-10-16T18:39:42.010Z,22.21
2022-10-16T18:42:11.080Z,21.99
2022-10-16T18:44:41.816Z,22.09
2022-10-16T18:47:12.334Z,22.13
2022-10-16T18:49:44.659Z,22.14
2022-10-16T18:52:14.028Z,22.19
2022-10-16T18:54:43.427Z,22.20
2022-10-16T18:57:12.583Z,22.23
2022-10-16T18:59:42.493Z,22.14
2022-10-16T19:02:14.450Z,22.24
2022-10-16T19:04:43.571Z,22.22
2022-10-16T19:07:12.142Z,22.18
2022-10-16T19:09:46.623Z,22.12
2022-10-16T19:12:17.707Z,21.98
2022-10-16T19:14:49.527Z,22.06
2022-10-16T19:17:18.209Z,21.83
2022-10-16T19:19:50.598Z,21.90
2022-10-16T19:22:28.451Z,22.00
2022-10-16T19:24:59.330Z,21.99
2022-10-16T19:27:27.950Z,21.96
2022-10-16T19:29:57.397Z,21.99
2022-10-16T19:32:26.659Z,21.96
2022-10-16T19:34:57.508Z,21.88
2022-10-16T19:37:27.944Z,21.87
2022-10-16T19:39:58.757Z,21.88
2022-10-16T19:42:29.149Z,21.87
2022-10-16T19:44:58.291Z,21.94
2022-10-16T19:47:26.655Z,21.92
2022-10-16T19:49:55.345Z,21.89
2022-10-16T19:52:25.755Z,21.92
2022-10-16T19:54:59.554Z,21.77
2022-10-16T19:57:28.844Z,21.80
2022-10-16T19:59:59.169Z,21.79
2022-10-16T20:02:27.773Z,21.72
2022-10-16T20:04:57.584Z,21.76
2022-10-16T20:07:29.151Z,21.78
2022-10-16T20:09:59.835Z,21.76
2022-10-16T20:12:28.222Z,21.77
2022-10-16T20:14:56.623Z,21.78
2022-10-16T20:17:25.140Z,21.78
2022-10-16T20:19:53.352Z,21.68
2022-10-16T20:22:21.243Z,21.59
2022-10-16T20:24:50.216Z,21.51
2022-10-16T20:27:18.095Z,21.45
2022-10-16T20:29:50.352Z,21.40
2022-10-16T20:32:18.476Z,21.40
2022-10-16T20:34:49.571Z,21.34
2022-10-16T20:37:18.483Z,21.34
2022-10-16T20:39:47.828Z,21.32
2022-10-16T20:42:16.225Z,21.27
2022-10-16T20:44:47.897Z,21.31
2022-10-16T20:47:18.002Z,21.29
2022-10-16T20:49:49.673Z,21.26
2022-10-16T20:52:18.899Z,21.19
2022-10-16T20:54:47.210Z,21.15
2022-10-16T20:57:15.632Z,21.11
2022-10-16T20:59:43.849Z,21.07
2022-10-16T21:02:14.228Z,20.98
2022-10-16T21:04:46.920Z,21.04
2022-10-16T21:07:14.717Z,20.98
2022-10-16T21:09:43.624Z,21.04
2022-10-16T21:12:11.755Z,21.02
2022-10-16T21:14:46.452Z,21.00
2022-10-16T21:17:24.386Z,20.96
2022-10-16T21:19:53.318Z,20.90
2022-10-16T21:22:21.234Z,20.98
2022-10-16T21:24:53.489Z,20.89
2022-10-16T21:27:21.747Z,20.89
2022-10-16T21:29:54.665Z,20.78
2022-10-16T21:32:23.193Z,20.75
2022-10-16T21:34:51.552Z,20.68
2022-10-16T21:37:22.035Z,20.62
2022-10-16T21:39:51.465Z,20.57
2022-10-16T21:42:19.371Z,20.45
2022-10-16T21:44:48.802Z,20.55
2022-10-16T21:47:17.412Z,20.52
2022-10-16T21:49:45.809Z,20.49
2022-10-16T21:52:13.816Z,20.51
2022-10-16T21:54:42.269Z,20.55
2022-10-16T21:57:10.193Z,20.55
2022-10-16T21:59:38.333Z,20.51
2022-10-16T22:02:06.383Z,20.51
2022-10-16T22:04:34.420Z,20.53
2022-10-16T22:07:02.406Z,20.45
2022-10-16T22:09:30.660Z,20.42
2022-10-16T22:11:58.588Z,20.41
2022-10-16T22:14:26.839Z,20.26
2022-10-16T22:16:54.717Z,20.34
2022-10-16T22:19:23.460Z,20.39
2022-10-16T22:21:57.463Z,20.40
2022-10-16T22:24:25.491Z,20.27
2022-10-16T22:26:53.306Z,20.24
2022-10-16T22:29:22.227Z,20.28
2022-10-16T22:31:54.053Z,20.25
2022-10-16T22:34:22.237Z,20.26
2022-10-16T22:36:50.820Z,20.22
2022-10-16T22:39:23.614Z,20.26
2022-10-16T22:41:51.846Z,20.20
2022-10-16T22:44:21.166Z,20.27
2022-10-16T22:46:49.468Z,20.28
2022-10-16T22:49:20.032Z,20.26
2022-10-16T22:51:48.283Z,20.24
2022-10-16T22:54:16.642Z,20.23
2022-10-16T22:56:44.394Z,20.26
2022-10-16T22:59:13.873Z,20.23
2022-10-16T23:01:42.745Z,20.08
2022-10-16T23:04:10.624Z,20.04
2022-10-16T23:06:38.589Z,20.03
2022-10-16T23:09:06.762Z,19.92
2022-10-16T23:11:34.668Z,19.96
2022-10-16T23:14:02.620Z,19.91
2022-10-16T23:16:30.417Z,19.92
2022-10-16T23:18:58.950Z,19.91
2022-10-16T23:21:26.965Z,19.83
2022-10-16T23:23:55.590Z,19.82
2022-10-16T23:26:26.686Z,19.78
2022-10-16T23:28:59.365Z,19.69
2022-10-16T23:31:29.232Z,19.64
2022-10-16T23:33:58.911Z,19.61
2022-10-16T23:36:27.214Z,19.60
2022-10-16T23:38:56.019Z,19.61
2022-10-16T23:41:25.908Z,19.64
2022-10-16T23:43:55.138Z,19.60
2022-10-16T23:46:22.949Z,19.66
2022-10-16T23:48:50.770Z,19.66
2022-10-16T23:51:18.688Z,19.57
2022-10-16T23:53:47.064Z,19.60
2022-10-16T23:56:15.183Z,19.61
2022-10-16T23:58:43.035Z,19.57
